Gilze-Rijen, Netherlands

5:47 PM CET on February 13, 2016 (GMT +0100)
Tilburg, Reeshof-Dalem | | Change Station
CLOSE
Current Station
Personal Weather Station
Location: Tilburg, NOORD-BRABANT
Elevation: 23 ft
Nearby Weather Stations

Elev 23 ft 51.58 °N, 4.98 °E | Updated 35 seconds ago

Overcast
Overcast
39.7 °F
Feels Like 38 °F
N
3.1
Wind Variable Wind from South
Gusts 5.4 mph

Today
High -- | Low -- °F
--% Chance of Precip.
Yesterday
High -- | Low -- °F
Precip. -- in
Pressure 29.03 in
Visibility 6.2 miles
Clouds Mostly Cloudy 1400 ft
Overcast 1700 ft
Windchill 38 °F
Dew Point 32 °F
Humidity 72%
Rainfall 0.00 in
Snow Depth Not available.
7:59 AM 5:50 PM
Waxing Crescent, 32% visible
SPECI EHWO 131634Z AUTO 08011KT 050V110 9999 DZ BKN014 OVC017 04/01 Q0983 GRN
Pressure 29.03 in
Visibility 6.2 miles
Clouds Mostly Cloudy 1400 ft
Overcast 1700 ft
Windchill 38 °F
Dew Point 32 °F
Humidity 72%
Rainfall 0.00 in
Snow Depth Not available.
7:59 AM 5:50 PM
Waxing Crescent, 32% visible
SPECI EHWO 131634Z AUTO 08011KT 050V110 9999 DZ BKN014 OVC017 04/01 Q0983 GRN

10-Day Weather Forecast

Almanac

Astronomy

Feb. 13, 2016 Rise Set
Actual Time
Civil Twilight
Nautical Twilight
Astronomical Twilight
Moon
Length of Visible Light
Length of Day
Tomorrow will be .
, % of the Moon is Illuminated

Today's Extremes

Country Highs Country Lows

Community

WunderPhotos

Upload Photos

1,892,604 photos uploaded!

WunderBlog® & News

Nearby

Air Quality

  Air Quality AQ Index Pollutant
Not available.

Snow Depth

Station Depth Elevation

Earthquake Activity

City Distance Mag. Time & Date
Minimum magnitude displayed is 2.5.

Coastal Water Temperatures

Place Temperature

Stations

Nearby Weather Stations

Station Location Temp. Windchill Dew Point Humidity Wind Precip. Elev Updated Type